createdAt,value
2018-08-24T00:00:44.393Z,8.00
2018-08-24T00:03:15.269Z,7.90
2018-08-24T00:05:45.349Z,8.45
2018-08-24T00:08:16.385Z,8.48
2018-08-24T00:10:47.109Z,8.05
2018-08-24T00:13:17.188Z,8.75
2018-08-24T00:15:48.228Z,8.43
2018-08-24T00:18:19.208Z,7.90
2018-08-24T00:20:49.874Z,8.20
2018-08-24T00:23:20.385Z,7.87
2018-08-24T00:25:52.009Z,7.60
2018-08-24T00:28:22.466Z,6.55
2018-08-24T00:30:53.507Z,7.17
2018-08-24T00:33:24.483Z,7.67
2018-08-24T00:35:54.946Z,7.45
2018-08-24T00:38:26.310Z,7.22
2018-08-24T00:40:57.346Z,7.65
2018-08-24T00:43:27.849Z,7.72
2018-08-24T00:45:58.909Z,7.30
2018-08-24T00:48:29.508Z,7.30
2018-08-24T00:51:00.172Z,7.83
2018-08-24T00:53:30.610Z,7.40
2018-08-24T00:56:00.709Z,7.42
2018-08-24T00:58:31.373Z,7.70
2018-08-24T01:01:02.148Z,7.62
2018-08-24T01:03:33.517Z,7.35
2018-08-24T01:06:03.234Z,7.58
2018-08-24T01:08:34.306Z,8.03
2018-08-24T01:11:05.030Z,8.10
2018-08-24T01:13:34.702Z,7.42
2018-08-24T01:16:05.511Z,8.15
2018-08-24T01:18:41.361Z,7.85
2018-08-24T01:21:11.428Z,7.58
2018-08-24T01:23:42.480Z,8.15
2018-08-24T01:26:14.528Z,8.43
2018-08-24T01:28:45.510Z,8.05
2018-08-24T01:31:15.843Z,7.85
2018-08-24T01:33:46.244Z,7.67
2018-08-24T01:36:17.987Z,7.90
2018-08-24T01:38:49.637Z,7.67
2018-08-24T01:41:20.366Z,7.70
2018-08-24T01:43:51.434Z,7.58
2018-08-24T01:46:21.831Z,7.08
2018-08-24T01:48:52.552Z,8.05
2018-08-24T01:51:24.225Z,8.48
2018-08-24T01:53:54.894Z,8.25
2018-08-24T01:56:25.921Z,8.53
2018-08-24T01:58:56.673Z,7.90
2018-08-24T02:01:27.748Z,7.83
2018-08-24T02:03:58.909Z,8.13
2018-08-24T02:06:30.127Z,7.70
2018-08-24T02:09:01.840Z,8.10
2018-08-24T02:11:34.473Z,7.75
2018-08-24T02:14:10.583Z,8.70
2018-08-24T02:16:42.945Z,7.90
2018-08-24T02:19:17.190Z,7.60
2018-08-24T02:21:53.031Z,7.70
2018-08-24T02:24:23.748Z,7.85
2018-08-24T02:26:54.147Z,8.00
2018-08-24T02:29:24.815Z,8.00
2018-08-24T02:31:55.308Z,8.03
2018-08-24T02:34:26.317Z,8.25
2018-08-24T02:36:56.974Z,8.20
2018-08-24T02:39:28.067Z,8.90
2018-08-24T02:41:58.468Z,8.10
2018-08-24T02:44:29.571Z,8.23
2018-08-24T02:47:00.502Z,8.15
2018-08-24T02:49:30.951Z,8.55
2018-08-24T02:52:01.615Z,7.83
2018-08-24T02:54:32.863Z,7.92
2018-08-24T02:57:03.049Z,8.20
2018-08-24T02:59:33.829Z,8.30
2018-08-24T03:02:04.546Z,8.10
2018-08-24T03:04:35.284Z,8.00
2018-08-24T03:07:05.986Z,8.53
2018-08-24T03:09:36.322Z,7.45
2018-08-24T03:12:07.105Z,8.75
2018-08-24T03:14:38.687Z,8.08
2018-08-24T03:17:13.989Z,8.08
2018-08-24T03:19:44.964Z,8.33
2018-08-24T03:22:15.747Z,8.53
2018-08-24T03:24:47.427Z,8.95
2018-08-24T03:27:17.046Z,8.90
2018-08-24T03:29:48.230Z,8.33
2018-08-24T03:32:18.885Z,7.85
2018-08-24T03:34:50.632Z,8.48
2018-08-24T03:37:21.255Z,8.18
2018-08-24T03:39:52.014Z,8.05
2018-08-24T03:42:23.241Z,8.18
2018-08-24T03:44:53.188Z,7.60
2018-08-24T03:47:23.853Z,8.28
2018-08-24T03:49:53.988Z,8.40
2018-08-24T03:52:24.337Z,7.87
2018-08-24T03:54:55.427Z,8.48
2018-08-24T03:57:25.825Z,8.35
2018-08-24T03:59:56.228Z,8.70
2018-08-24T04:02:28.230Z,8.95
2018-08-24T04:04:58.955Z,9.58
2018-08-24T04:07:29.648Z,8.70
2018-08-24T04:10:00.400Z,9.08
2018-08-24T04:12:31.124Z,9.70
2018-08-24T04:15:01.831Z,9.23
2018-08-24T04:17:37.350Z,9.28
2018-08-24T04:20:08.708Z,9.23
2018-08-24T04:22:39.389Z,8.90
2018-08-24T04:25:10.787Z,8.68
2018-08-24T04:27:42.217Z,9.30
2018-08-24T04:30:13.193Z,10.03
2018-08-24T04:32:44.545Z,9.35
2018-08-24T04:35:14.957Z,8.45
2018-08-24T04:37:46.055Z,8.83
2018-08-24T04:40:17.230Z,9.40
2018-08-24T04:42:48.335Z,9.60
2018-08-24T04:45:18.790Z,8.88
2018-08-24T04:47:50.475Z,9.63
2018-08-24T04:50:22.153Z,9.10
2018-08-24T04:52:54.470Z,9.15
2018-08-24T04:55:25.195Z,8.50
2018-08-24T04:57:55.265Z,8.50
2018-08-24T05:00:26.311Z,8.95
2018-08-24T05:02:57.349Z,8.75
2018-08-24T05:05:28.035Z,8.53
2018-08-24T05:07:59.871Z,8.33
2018-08-24T05:10:31.751Z,8.05
2018-08-24T05:13:02.437Z,8.80
2018-08-24T05:15:33.995Z,8.30
2018-08-24T05:18:05.181Z,8.38
2018-08-24T05:20:35.865Z,7.70
2018-08-24T05:23:07.589Z,8.13
2018-08-24T05:25:37.995Z,8.55
2018-08-24T05:28:08.768Z,7.95
2018-08-24T05:30:39.428Z,8.20
2018-08-24T05:33:11.346Z,9.05
2018-08-24T05:35:42.529Z,8.78
2018-08-24T05:38:12.804Z,8.63
2018-08-24T05:40:43.225Z,8.75
2018-08-24T05:43:13.998Z,8.98
2018-08-24T05:45:44.399Z,8.40
2018-08-24T05:48:15.134Z,9.58
2018-08-24T05:50:45.711Z,9.88
2018-08-24T05:53:16.764Z,8.88
2018-08-24T05:55:47.185Z,9.08
2018-08-24T05:58:17.873Z,9.23
2018-08-24T06:00:48.289Z,10.08
2018-08-24T06:03:19.000Z,8.33
2018-08-24T06:05:54.571Z,8.15
2018-08-24T06:08:24.889Z,10.03
2018-08-24T06:10:55.379Z,7.45
2018-08-24T06:13:26.369Z,6.90
2018-08-24T06:15:57.147Z,7.45
2018-08-24T06:18:28.750Z,7.78
2018-08-24T06:20:59.469Z,7.87
2018-08-24T06:23:30.187Z,7.20
2018-08-24T06:26:00.911Z,7.37
2018-08-24T06:28:31.053Z,6.62
2018-08-24T06:31:02.410Z,7.10
2018-08-24T06:33:32.749Z,6.78
2018-08-24T06:36:03.210Z,7.00
2018-08-24T06:38:33.933Z,7.08
2018-08-24T06:41:03.897Z,7.08
2018-08-24T06:43:34.686Z,7.05
2018-08-24T06:46:05.392Z,6.97
2018-08-24T06:48:35.796Z,7.10
2018-08-24T06:51:06.513Z,7.20
2018-08-24T06:53:36.952Z,6.80
2018-08-24T06:56:06.970Z,7.12
2018-08-24T06:58:37.327Z,7.30
2018-08-24T07:01:07.794Z,7.33
2018-08-24T07:03:37.883Z,6.87
2018-08-24T07:06:07.922Z,7.65
2018-08-24T07:08:38.673Z,7.15
2018-08-24T07:11:09.383Z,6.75
2018-08-24T07:13:39.243Z,6.17
2018-08-24T07:16:09.079Z,6.55
2018-08-24T07:18:39.198Z,6.50
2018-08-24T07:21:09.505Z,6.22
2018-08-24T07:23:39.455Z,5.87
2018-08-24T07:26:09.144Z,6.10
2018-08-24T07:28:39.535Z,6.05
2018-08-24T07:31:09.854Z,5.40
2018-08-24T07:33:39.954Z,6.10
2018-08-24T07:36:10.467Z,6.67
2018-08-24T07:38:40.266Z,6.15
2018-08-24T07:41:11.563Z,6.45
2018-08-24T07:43:41.518Z,6.25
2018-08-24T07:46:11.359Z,7.65
2018-08-24T07:48:42.191Z,9.65
2018-08-24T07:51:12.277Z,9.95
2018-08-24T07:53:42.990Z,8.33
2018-08-24T07:56:13.729Z,8.40
2018-08-24T07:58:44.433Z,9.00
2018-08-24T08:01:14.871Z,8.90
2018-08-24T08:03:45.290Z,9.18
2018-08-24T08:06:16.335Z,8.40
2018-08-24T08:08:47.322Z,8.30
2018-08-24T08:11:17.728Z,8.93
2018-08-24T08:13:48.119Z,8.98
2018-08-24T08:16:18.512Z,8.30
2018-08-24T08:18:49.238Z,8.55
2018-08-24T08:21:19.953Z,8.00
2018-08-24T08:23:50.383Z,8.40
2018-08-24T08:26:20.755Z,8.20
2018-08-24T08:28:51.160Z,8.50
2018-08-24T08:31:21.883Z,9.05
2018-08-24T08:33:52.284Z,10.35
2018-08-24T08:36:22.025Z,16.35
2018-08-24T08:38:51.979Z,12.55
2018-08-24T08:41:21.835Z,14.18
2018-08-24T08:43:52.819Z,13.35
2018-08-24T08:46:22.790Z,9.90
2018-08-24T08:48:53.523Z,9.90
2018-08-24T08:51:23.446Z,8.55
2018-08-24T08:53:53.404Z,9.33
2018-08-24T08:56:23.425Z,9.10
2018-08-24T08:58:53.262Z,8.80
2018-08-24T09:01:23.418Z,6.85
2018-08-24T09:03:53.316Z,6.95
2018-08-24T09:06:23.365Z,6.92
2018-08-24T09:08:54.505Z,6.97
2018-08-24T09:11:24.474Z,7.75
2018-08-24T09:13:54.409Z,6.95
2018-08-24T09:16:25.294Z,6.95
2018-08-24T09:19:00.434Z,5.80
2018-08-24T09:21:35.325Z,5.85
2018-08-24T09:25:12.932Z,5.95
2018-08-24T09:27:48.502Z,5.03
2018-08-24T09:30:19.803Z,5.65
2018-08-24T09:32:50.333Z,5.10
2018-08-24T09:35:20.079Z,5.20
2018-08-24T09:37:49.948Z,5.15
2018-08-24T09:40:23.906Z,5.83
2018-08-24T09:43:07.674Z,5.62
2018-08-24T09:45:38.197Z,5.40
2018-08-24T09:48:13.815Z,5.62
2018-08-24T09:50:49.887Z,5.33
2018-08-24T09:53:25.398Z,5.03
2018-08-24T09:55:55.408Z,6.67
2018-08-24T09:58:25.345Z,4.75
2018-08-24T10:01:01.677Z,5.05
2018-08-24T10:03:36.346Z,5.28
2018-08-24T10:06:11.210Z,4.60
2018-08-24T10:08:46.058Z,5.17
2018-08-24T10:11:16.123Z,5.60
2018-08-24T10:13:46.951Z,5.60
2018-08-24T10:16:17.751Z,5.40
2018-08-24T10:18:48.654Z,5.35
2018-08-24T10:21:18.988Z,5.80
2018-08-24T10:23:50.027Z,5.70
2018-08-24T10:26:20.492Z,5.33
2018-08-24T10:28:51.467Z,5.10
2018-08-24T10:31:21.558Z,5.92
2018-08-24T10:33:52.136Z,7.45
2018-08-24T10:36:22.048Z,5.22
2018-08-24T10:38:53.769Z,5.87
2018-08-24T10:41:25.132Z,5.20
2018-08-24T10:43:54.976Z,6.22
2018-08-24T10:46:24.895Z,5.12
2018-08-24T10:48:55.205Z,5.40
2018-08-24T10:51:25.104Z,5.70
2018-08-24T10:53:55.270Z,5.45
2018-08-24T10:56:25.016Z,5.10
2018-08-24T10:58:55.636Z,5.42
2018-08-24T11:01:26.678Z,5.90
2018-08-24T11:03:57.229Z,8.85
2018-08-24T11:06:28.113Z,6.10
2018-08-24T11:08:58.579Z,5.35
2018-08-24T11:11:29.066Z,5.75
2018-08-24T11:13:59.643Z,5.35
2018-08-24T11:16:30.022Z,5.47
2018-08-24T11:19:00.435Z,5.58
2018-08-24T11:21:31.103Z,4.72
2018-08-24T11:24:01.932Z,5.60
2018-08-24T11:26:32.282Z,5.22
2018-08-24T11:29:02.734Z,6.00
2018-08-24T11:31:33.080Z,5.22
2018-08-24T11:34:03.554Z,5.42
2018-08-24T11:36:33.875Z,5.87
2018-08-24T11:39:05.241Z,6.03
2018-08-24T11:41:35.693Z,5.90
2018-08-24T11:44:06.741Z,5.60
2018-08-24T11:46:37.390Z,5.87
2018-08-24T11:49:08.076Z,4.90
2018-08-24T11:51:38.892Z,5.72
2018-08-24T11:54:09.572Z,4.50
2018-08-24T11:56:40.278Z,4.70
2018-08-24T11:59:10.670Z,4.97
2018-08-24T12:01:41.390Z,4.78
2018-08-24T12:04:11.801Z,3.83
2018-08-24T12:06:42.581Z,4.37
2018-08-24T12:09:13.294Z,3.58
2018-08-24T12:11:43.962Z,4.10
2018-08-24T12:14:14.680Z,3.65
2018-08-24T12:16:45.725Z,3.17
2018-08-24T12:19:17.454Z,2.72
2018-08-24T12:21:48.434Z,2.58
2018-08-24T12:24:18.894Z,2.98
2018-08-24T12:26:49.233Z,3.52
2018-08-24T12:29:19.963Z,2.95
2018-08-24T12:31:50.679Z,3.42
2018-08-24T12:34:22.039Z,3.67
2018-08-24T12:36:52.761Z,3.27
2018-08-24T12:39:24.124Z,3.72
2018-08-24T12:41:54.847Z,3.40
2018-08-24T12:44:25.238Z,4.00
2018-08-24T12:46:56.662Z,3.77
2018-08-24T12:49:31.806Z,4.10
2018-08-24T12:52:02.577Z,3.75
2018-08-24T12:54:33.248Z,3.50
2018-08-24T12:57:04.279Z,3.67
2018-08-24T12:59:35.463Z,4.22
2018-08-24T13:02:06.420Z,3.33
2018-08-24T13:04:37.407Z,3.83
2018-08-24T13:07:08.174Z,3.50
2018-08-24T13:09:38.836Z,3.75
2018-08-24T13:12:09.554Z,4.12
2018-08-24T13:14:40.098Z,3.90
2018-08-24T13:17:11.948Z,3.50
2018-08-24T13:19:41.719Z,3.80
2018-08-24T13:22:11.536Z,3.80
2018-08-24T13:24:41.622Z,3.70
2018-08-24T13:27:11.492Z,4.17
2018-08-24T13:29:41.287Z,3.95
2018-08-24T13:32:11.354Z,4.05
2018-08-24T13:34:42.193Z,3.90
2018-08-24T13:37:12.972Z,3.67
2018-08-24T13:39:43.635Z,3.60
2018-08-24T13:42:14.352Z,3.95
2018-08-24T13:44:44.438Z,3.92
2018-08-24T13:47:15.544Z,3.50
2018-08-24T13:49:46.201Z,3.60
2018-08-24T13:52:16.278Z,3.55
2018-08-24T13:54:46.403Z,4.17
2018-08-24T13:57:17.134Z,4.00
2018-08-24T13:59:48.232Z,3.92
2018-08-24T14:02:18.845Z,4.47
2018-08-24T14:04:50.492Z,4.15
2018-08-24T14:07:21.228Z,4.30
2018-08-24T14:09:51.633Z,4.45
2018-08-24T14:12:22.360Z,4.17
2018-08-24T14:14:53.069Z,4.37
2018-08-24T14:17:24.077Z,4.20
2018-08-24T14:19:54.844Z,3.87
2018-08-24T14:22:25.551Z,4.08
2018-08-24T14:24:56.916Z,3.87
2018-08-24T14:27:27.699Z,3.80
2018-08-24T14:29:58.415Z,3.72
2018-08-24T14:32:29.408Z,3.80
2018-08-24T14:35:00.179Z,3.85
2018-08-24T14:37:30.841Z,4.03
2018-08-24T14:40:01.901Z,4.00
2018-08-24T14:42:32.010Z,3.17
2018-08-24T14:45:03.630Z,3.80
2018-08-24T14:47:34.205Z,4.20
2018-08-24T14:50:04.539Z,3.70
2018-08-24T14:52:34.596Z,3.65
2018-08-24T14:55:04.875Z,4.20
2018-08-24T14:57:34.871Z,3.70
2018-08-24T15:00:04.830Z,4.35
2018-08-24T15:02:35.151Z,5.15
2018-08-24T15:05:06.015Z,4.53
2018-08-24T15:07:35.792Z,5.28
2018-08-24T15:10:05.656Z,9.70
2018-08-24T15:12:36.570Z,5.42
2018-08-24T15:15:06.344Z,7.67
2018-08-24T15:17:36.210Z,6.03
2018-08-24T15:20:06.942Z,5.40
2018-08-24T15:22:37.456Z,6.12
2018-08-24T15:25:07.861Z,5.30
2018-08-24T15:27:38.665Z,5.92
2018-08-24T15:30:08.625Z,5.85
2018-08-24T15:32:38.926Z,5.97
2018-08-24T15:35:09.459Z,6.30
2018-08-24T15:37:41.601Z,5.62
2018-08-24T15:40:11.484Z,5.20
2018-08-24T15:42:41.419Z,4.90
2018-08-24T15:45:11.915Z,4.47
2018-08-24T15:47:42.269Z,4.60
2018-08-24T15:50:12.953Z,4.33
2018-08-24T15:52:44.316Z,4.58
2018-08-24T15:55:15.295Z,6.17
2018-08-24T15:57:45.702Z,7.15
2018-08-24T16:00:16.481Z,7.28
2018-08-24T16:02:46.825Z,7.42
2018-08-24T16:05:16.953Z,7.30
2018-08-24T16:07:47.674Z,8.73
2018-08-24T16:10:18.838Z,7.97
2018-08-24T16:12:48.497Z,9.05
2018-08-24T16:15:18.707Z,9.25
2018-08-24T16:17:53.668Z,8.70
2018-08-24T16:20:23.330Z,9.73
2018-08-24T16:22:53.787Z,9.55
2018-08-24T16:25:23.633Z,9.85
2018-08-24T16:27:54.900Z,9.18
2018-08-24T16:30:25.307Z,10.82
2018-08-24T16:32:56.049Z,10.48
2018-08-24T16:35:27.061Z,11.60
2018-08-24T16:37:57.832Z,11.40
2018-08-24T16:40:28.817Z,11.43
2018-08-24T16:42:59.281Z,11.25
2018-08-24T16:45:30.268Z,10.05
2018-08-24T16:48:01.119Z,12.03
2018-08-24T16:50:31.761Z,9.68
2018-08-24T16:53:03.386Z,10.53
2018-08-24T16:55:34.066Z,11.75
2018-08-24T16:58:04.963Z,10.43
2018-08-24T17:00:35.875Z,11.78
2018-08-24T17:03:06.318Z,11.38
2018-08-24T17:05:36.998Z,10.60
2018-08-24T17:08:08.349Z,11.00
2018-08-24T17:10:39.391Z,11.28
2018-08-24T17:13:10.108Z,11.93
2018-08-24T17:15:40.943Z,12.40
2018-08-24T17:18:11.909Z,11.65
2018-08-24T17:20:43.270Z,12.90
2018-08-24T17:23:14.469Z,12.28
2018-08-24T17:25:44.909Z,12.68
2018-08-24T17:28:15.949Z,14.63
2018-08-24T17:30:46.198Z,15.98
2018-08-24T17:33:17.522Z,16.10
2018-08-24T17:35:47.973Z,17.42
2018-08-24T17:38:19.215Z,14.80
2018-08-24T17:40:50.001Z,15.20
2018-08-24T17:43:20.673Z,14.95
2018-08-24T17:45:51.759Z,16.23
2018-08-24T17:48:22.803Z,16.62
2018-08-24T17:50:54.159Z,16.17
2018-08-24T17:53:25.199Z,18.42
2018-08-24T17:55:56.566Z,17.10
2018-08-24T17:58:27.287Z,16.80
2018-08-24T18:00:57.998Z,17.25
2018-08-24T18:03:28.719Z,18.12
2018-08-24T18:05:58.799Z,18.65
2018-08-24T18:08:29.142Z,19.95
2018-08-24T18:10:59.868Z,22.30
2018-08-24T18:13:30.962Z,20.37
2018-08-24T18:16:01.951Z,19.42
2018-08-24T18:18:32.718Z,19.90
2018-08-24T18:21:02.800Z,20.40
2018-08-24T18:23:33.468Z,19.02
2018-08-24T18:26:04.510Z,21.45
2018-08-24T18:28:34.639Z,19.55
2018-08-24T18:31:04.928Z,22.25
2018-08-24T18:33:35.379Z,24.52
2018-08-24T18:36:05.732Z,22.80
2018-08-24T18:38:36.146Z,22.15
2018-08-24T18:41:06.858Z,23.50
2018-08-24T18:43:37.240Z,24.50
2018-08-24T18:46:08.600Z,22.35
2018-08-24T18:48:39.328Z,22.10
2018-08-24T18:51:09.771Z,21.40
2018-08-24T18:53:43.939Z,22.37
2018-08-24T18:56:16.716Z,25.62
2018-08-24T18:58:52.525Z,26.35
2018-08-24T19:01:26.651Z,25.80
2018-08-24T19:03:59.113Z,28.52
2018-08-24T19:06:35.484Z,27.15
2018-08-24T19:09:08.262Z,27.10
2018-08-24T19:11:43.642Z,28.00
2018-08-24T19:14:18.500Z,29.98
2018-08-24T19:16:50.401Z,30.17
2018-08-24T19:19:27.075Z,30.48
2018-08-24T19:22:00.770Z,30.00
2018-08-24T19:24:34.588Z,28.98
2018-08-24T19:27:06.939Z,25.88
2018-08-24T19:29:42.901Z,25.68
2018-08-24T19:32:15.270Z,24.55
2018-08-24T19:34:47.220Z,19.35
2018-08-24T19:37:17.832Z,21.48
2018-08-24T19:39:55.277Z,19.92
2018-08-24T19:42:28.425Z,19.42
2018-08-24T19:45:01.140Z,19.92
2018-08-24T19:47:37.045Z,22.73
2018-08-24T19:50:10.837Z,20.30
2018-08-24T19:52:42.213Z,21.65
2018-08-24T19:55:14.101Z,20.90
2018-08-24T19:57:51.998Z,21.40
2018-08-24T20:00:24.091Z,22.32
2018-08-24T20:02:55.582Z,20.65
2018-08-24T20:05:28.692Z,20.48
2018-08-24T20:09:06.340Z,20.92
2018-08-24T20:11:38.668Z,21.23
2018-08-24T20:14:12.264Z,19.52
2018-08-24T20:16:49.755Z,20.82
2018-08-24T20:19:21.537Z,22.13
2018-08-24T20:21:52.887Z,21.27
2018-08-24T20:24:22.401Z,23.18
2018-08-24T20:26:52.195Z,23.02
2018-08-24T20:29:23.167Z,22.15
2018-08-24T20:31:53.607Z,21.90
2018-08-24T20:34:24.347Z,21.42
2018-08-24T20:36:55.377Z,23.15
2018-08-24T20:39:25.873Z,23.05
2018-08-24T20:41:57.198Z,23.30
2018-08-24T20:44:28.502Z,23.40
2018-08-24T20:46:58.949Z,24.37
2018-08-24T20:49:30.379Z,22.58
2018-08-24T20:52:01.942Z,23.95
2018-08-24T20:54:33.302Z,23.02
2018-08-24T20:57:04.037Z,22.98
2018-08-24T20:59:35.080Z,22.37
2018-08-24T21:02:06.093Z,24.43
2018-08-24T21:04:37.461Z,24.82
2018-08-24T21:07:09.130Z,24.70
2018-08-24T21:09:39.556Z,23.00
2018-08-24T21:12:10.315Z,24.23
2018-08-24T21:14:40.941Z,25.02
2018-08-24T21:17:10.715Z,25.75
2018-08-24T21:19:41.760Z,24.20
2018-08-24T21:22:13.161Z,21.80
2018-08-24T21:24:43.445Z,21.62
2018-08-24T21:27:13.207Z,24.35
2018-08-24T21:29:43.290Z,22.85
2018-08-24T21:32:13.186Z,22.50
2018-08-24T21:34:43.243Z,24.50
2018-08-24T21:37:13.197Z,24.20
2018-08-24T21:39:42.980Z,25.37
2018-08-24T21:42:12.871Z,23.70
2018-08-24T21:44:43.269Z,23.70
2018-08-24T21:47:13.029Z,23.90
2018-08-24T21:49:42.960Z,25.17
2018-08-24T21:52:12.718Z,23.92
2018-08-24T21:54:42.626Z,22.35
2018-08-24T21:57:12.355Z,21.65
2018-08-24T21:59:42.888Z,19.90
2018-08-24T22:02:12.550Z,18.48
2018-08-24T22:04:43.595Z,19.77
2018-08-24T22:07:14.894Z,16.80
2018-08-24T22:09:46.255Z,15.60
2018-08-24T22:12:18.307Z,16.25
2018-08-24T22:14:50.310Z,15.55
2018-08-24T22:17:21.673Z,13.45
2018-08-24T22:19:51.701Z,14.30
2018-08-24T22:22:22.102Z,14.18
2018-08-24T22:24:52.814Z,15.20
2018-08-24T22:27:23.855Z,15.53
2018-08-24T22:29:54.980Z,13.08
2018-08-24T22:32:25.988Z,14.58
2018-08-24T22:34:56.333Z,14.10
2018-08-24T22:37:26.146Z,12.70
2018-08-24T22:39:56.228Z,12.15
2018-08-24T22:42:25.987Z,12.78
2018-08-24T22:44:56.066Z,12.82
2018-08-24T22:47:26.741Z,13.60
2018-08-24T22:49:56.549Z,12.85
2018-08-24T22:52:26.308Z,12.20
2018-08-24T22:54:56.065Z,13.55
2018-08-24T22:57:26.795Z,13.70
2018-08-24T22:59:56.870Z,12.88
2018-08-24T23:02:27.594Z,13.68
2018-08-24T23:04:57.529Z,13.28
2018-08-24T23:07:27.946Z,12.45
2018-08-24T23:09:58.852Z,12.43
2018-08-24T23:12:30.149Z,12.85
2018-08-24T23:14:59.650Z,13.45
2018-08-24T23:17:30.568Z,13.18
2018-08-24T23:20:00.590Z,12.45
2018-08-24T23:22:30.469Z,12.00
2018-08-24T23:25:00.234Z,12.37
2018-08-24T23:27:30.160Z,11.93
2018-08-24T23:30:02.305Z,12.33
2018-08-24T23:32:34.314Z,13.03
2018-08-24T23:35:04.626Z,13.05
2018-08-24T23:37:35.768Z,13.40
2018-08-24T23:40:06.294Z,13.08
2018-08-24T23:42:35.744Z,13.03
2018-08-24T23:45:07.528Z,13.50
2018-08-24T23:47:37.670Z,14.03
2018-08-24T23:50:09.347Z,13.60
2018-08-24T23:52:39.698Z,18.07
2018-08-24T23:55:10.465Z,16.12
2018-08-24T23:57:40.809Z,17.23
